sensor_id;sensor_type;location;lat;lon;timestamp;P1;durP1;ratioP1;P2;durP2;ratioP2
21539;SDS011;10931;52.164;5.518;2022-07-23T00:01:30;0.52;;;0.40;;
21539;SDS011;10931;52.164;5.518;2022-07-23T00:03:58;0.70;;;0.40;;
21539;SDS011;10931;52.164;5.518;2022-07-23T00:06:30;0.30;;;0.30;;
21539;SDS011;10931;52.164;5.518;2022-07-23T00:09:03;0.45;;;0.45;;
21539;SDS011;10931;52.164;5.518;2022-07-23T00:11:29;0.50;;;0.40;;
21539;SDS011;10931;52.164;5.518;2022-07-23T00:13:55;0.55;;;0.50;;
21539;SDS011;10931;52.164;5.518;2022-07-23T00:16:24;0.52;;;0.50;;
21539;SDS011;10931;52.164;5.518;2022-07-23T00:18:59;0.47;;;0.47;;
21539;SDS011;10931;52.164;5.518;2022-07-23T00:21:26;0.50;;;0.50;;
21539;SDS011;10931;52.164;5.518;2022-07-23T00:23:51;1.10;;;0.45;;
21539;SDS011;10931;52.164;5.518;2022-07-23T00:26:17;0.52;;;0.50;;
21539;SDS011;10931;52.164;5.518;2022-07-23T00:28:43;0.47;;;0.35;;
21539;SDS011;10931;52.164;5.518;2022-07-23T00:31:09;0.70;;;0.40;;
21539;SDS011;10931;52.164;5.518;2022-07-23T00:33:35;1.70;;;0.80;;
21539;SDS011;10931;52.164;5.518;2022-07-23T00:36:01;0.40;;;0.40;;
21539;SDS011;10931;52.164;5.518;2022-07-23T00:38:28;0.50;;;0.50;;
21539;SDS011;10931;52.164;5.518;2022-07-23T00:41:00;0.77;;;0.40;;
21539;SDS011;10931;52.164;5.518;2022-07-23T00:43:26;0.85;;;0.52;;
21539;SDS011;10931;52.164;5.518;2022-07-23T00:51:32;0.70;;;0.50;;
21539;SDS011;10931;52.164;5.518;2022-07-23T00:54:11;0.45;;;0.45;;
21539;SDS011;10931;52.164;5.518;2022-07-23T00:56:46;1.88;;;0.47;;
21539;SDS011;10931;52.164;5.518;2022-07-23T00:59:14;0.50;;;0.50;;
21539;SDS011;10931;52.164;5.518;2022-07-23T01:07:01;0.35;;;0.35;;
21539;SDS011;10931;52.164;5.518;2022-07-23T01:09:27;0.75;;;0.55;;
21539;SDS011;10931;52.164;5.518;2022-07-23T01:12:04;1.45;;;0.43;;
21539;SDS011;10931;52.164;5.518;2022-07-23T01:14:32;0.63;;;0.43;;
21539;SDS011;10931;52.164;5.518;2022-07-23T01:17:18;0.93;;;0.43;;
21539;SDS011;10931;52.164;5.518;2022-07-23T01:19:43;0.88;;;0.40;;
21539;SDS011;10931;52.164;5.518;2022-07-23T01:22:12;0.40;;;0.40;;
21539;SDS011;10931;52.164;5.518;2022-07-23T01:24:39;0.50;;;0.50;;
21539;SDS011;10931;52.164;5.518;2022-07-23T01:27:09;0.68;;;0.50;;
21539;SDS011;10931;52.164;5.518;2022-07-23T01:29:44;0.50;;;0.50;;
21539;SDS011;10931;52.164;5.518;2022-07-23T01:32:21;0.47;;;0.47;;
21539;SDS011;10931;52.164;5.518;2022-07-23T01:35:04;0.60;;;0.60;;
21539;SDS011;10931;52.164;5.518;2022-07-23T01:37:31;0.95;;;0.45;;
21539;SDS011;10931;52.164;5.518;2022-07-23T01:40:12;0.60;;;0.50;;
21539;SDS011;10931;52.164;5.518;2022-07-23T01:42:53;0.43;;;0.43;;
21539;SDS011;10931;52.164;5.518;2022-07-23T01:45:30;0.40;;;0.40;;
21539;SDS011;10931;52.164;5.518;2022-07-23T01:48:08;0.90;;;0.40;;
21539;SDS011;10931;52.164;5.518;2022-07-23T01:50:37;0.50;;;0.50;;
21539;SDS011;10931;52.164;5.518;2022-07-23T01:58:28;0.70;;;0.50;;
21539;SDS011;10931;52.164;5.518;2022-07-23T02:00:54;1.85;;;0.35;;
21539;SDS011;10931;52.164;5.518;2022-07-23T02:03:25;0.85;;;0.40;;
21539;SDS011;10931;52.164;5.518;2022-07-23T02:09:13;0.50;;;0.40;;
21539;SDS011;10931;52.164;5.518;2022-07-23T02:11:41;0.40;;;0.40;;
21539;SDS011;10931;52.164;5.518;2022-07-23T02:14:40;0.40;;;0.40;;
21539;SDS011;10931;52.164;5.518;2022-07-23T02:17:08;0.60;;;0.50;;
21539;SDS011;10931;52.164;5.518;2022-07-23T02:19:38;0.60;;;0.50;;
21539;SDS011;10931;52.164;5.518;2022-07-23T02:22:13;1.48;;;0.40;;
21539;SDS011;10931;52.164;5.518;2022-07-23T02:24:43;0.40;;;0.40;;
21539;SDS011;10931;52.164;5.518;2022-07-23T02:30:01;0.57;;;0.40;;
21539;SDS011;10931;52.164;5.518;2022-07-23T02:32:37;0.43;;;0.43;;
21539;SDS011;10931;52.164;5.518;2022-07-23T02:35:04;0.43;;;0.40;;
21539;SDS011;10931;52.164;5.518;2022-07-23T02:37:31;0.30;;;0.30;;
21539;SDS011;10931;52.164;5.518;2022-07-23T02:39:57;0.50;;;0.45;;
21539;SDS011;10931;52.164;5.518;2022-07-23T02:42:23;1.00;;;0.40;;
21539;SDS011;10931;52.164;5.518;2022-07-23T02:44:50;0.80;;;0.40;;
21539;SDS011;10931;52.164;5.518;2022-07-23T02:47:17;0.50;;;0.50;;
21539;SDS011;10931;52.164;5.518;2022-07-23T02:49:43;0.43;;;0.40;;
21539;SDS011;10931;52.164;5.518;2022-07-23T02:52:15;0.43;;;0.38;;
21539;SDS011;10931;52.164;5.518;2022-07-23T02:54:44;0.52;;;0.43;;
21539;SDS011;10931;52.164;5.518;2022-07-23T02:57:13;0.50;;;0.50;;
21539;SDS011;10931;52.164;5.518;2022-07-23T02:59:44;0.70;;;0.40;;
21539;SDS011;10931;52.164;5.518;2022-07-23T03:02:10;0.40;;;0.40;;
21539;SDS011;10931;52.164;5.518;2022-07-23T03:04:36;0.40;;;0.40;;
21539;SDS011;10931;52.164;5.518;2022-07-23T03:07:01;0.45;;;0.40;;
21539;SDS011;10931;52.164;5.518;2022-07-23T03:09:36;0.40;;;0.40;;
21539;SDS011;10931;52.164;5.518;2022-07-23T03:12:02;0.38;;;0.35;;
21539;SDS011;10931;52.164;5.518;2022-07-23T03:14:28;0.40;;;0.40;;
21539;SDS011;10931;52.164;5.518;2022-07-23T03:16:54;0.82;;;0.50;;
21539;SDS011;10931;52.164;5.518;2022-07-23T03:19:25;0.45;;;0.40;;
21539;SDS011;10931;52.164;5.518;2022-07-23T03:21:51;0.32;;;0.32;;
21539;SDS011;10931;52.164;5.518;2022-07-23T03:24:17;0.88;;;0.43;;
21539;SDS011;10931;52.164;5.518;2022-07-23T03:26:48;0.40;;;0.40;;
21539;SDS011;10931;52.164;5.518;2022-07-23T03:29:13;0.43;;;0.40;;
21539;SDS011;10931;52.164;5.518;2022-07-23T03:31:40;0.50;;;0.50;;
21539;SDS011;10931;52.164;5.518;2022-07-23T03:34:06;0.70;;;0.50;;
21539;SDS011;10931;52.164;5.518;2022-07-23T03:36:38;0.70;;;0.60;;
21539;SDS011;10931;52.164;5.518;2022-07-23T03:39:05;0.45;;;0.45;;
21539;SDS011;10931;52.164;5.518;2022-07-23T03:41:31;0.50;;;0.43;;
21539;SDS011;10931;52.164;5.518;2022-07-23T03:44:02;0.40;;;0.40;;
21539;SDS011;10931;52.164;5.518;2022-07-23T03:46:27;0.30;;;0.30;;
21539;SDS011;10931;52.164;5.518;2022-07-23T03:48:53;0.50;;;0.40;;
21539;SDS011;10931;52.164;5.518;2022-07-23T03:51:19;0.52;;;0.30;;
21539;SDS011;10931;52.164;5.518;2022-07-23T03:53:44;0.65;;;0.43;;
21539;SDS011;10931;52.164;5.518;2022-07-23T03:59:13;0.50;;;0.50;;
21539;SDS011;10931;52.164;5.518;2022-07-23T04:01:42;0.40;;;0.40;;
21539;SDS011;10931;52.164;5.518;2022-07-23T04:04:08;3.13;;;0.40;;
21539;SDS011;10931;52.164;5.518;2022-07-23T04:06:34;0.40;;;0.40;;
21539;SDS011;10931;52.164;5.518;2022-07-23T04:09:03;0.30;;;0.30;;
21539;SDS011;10931;52.164;5.518;2022-07-23T04:11:29;0.40;;;0.40;;
21539;SDS011;10931;52.164;5.518;2022-07-23T04:13:56;0.52;;;0.30;;
21539;SDS011;10931;52.164;5.518;2022-07-23T04:16:27;0.40;;;0.40;;
21539;SDS011;10931;52.164;5.518;2022-07-23T04:18:53;0.50;;;0.40;;
21539;SDS011;10931;52.164;5.518;2022-07-23T04:21:27;0.45;;;0.40;;
21539;SDS011;10931;52.164;5.518;2022-07-23T04:23:52;0.30;;;0.30;;
21539;SDS011;10931;52.164;5.518;2022-07-23T04:29:06;0.50;;;0.43;;
21539;SDS011;10931;52.164;5.518;2022-07-23T04:31:31;1.05;;;0.50;;
21539;SDS011;10931;52.164;5.518;2022-07-23T04:34:11;0.38;;;0.38;;
21539;SDS011;10931;52.164;5.518;2022-07-23T04:36:42;0.52;;;0.50;;
21539;SDS011;10931;52.164;5.518;2022-07-23T04:39:20;0.93;;;0.50;;
21539;SDS011;10931;52.164;5.518;2022-07-23T04:44:24;0.35;;;0.30;;
21539;SDS011;10931;52.164;5.518;2022-07-23T04:47:03;0.30;;;0.30;;
21539;SDS011;10931;52.164;5.518;2022-07-23T04:58:11;0.50;;;0.50;;
21539;SDS011;10931;52.164;5.518;2022-07-23T05:00:41;2.45;;;0.40;;
21539;SDS011;10931;52.164;5.518;2022-07-23T05:03:09;0.40;;;0.40;;
21539;SDS011;10931;52.164;5.518;2022-07-23T05:05:38;0.40;;;0.40;;
21539;SDS011;10931;52.164;5.518;2022-07-23T05:08:03;0.80;;;0.47;;
21539;SDS011;10931;52.164;5.518;2022-07-23T05:10:30;0.43;;;0.40;;
21539;SDS011;10931;52.164;5.518;2022-07-23T05:12:58;0.93;;;0.40;;
21539;SDS011;10931;52.164;5.518;2022-07-23T05:15:24;0.60;;;0.40;;
21539;SDS011;10931;52.164;5.518;2022-07-23T05:17:50;0.32;;;0.30;;
21539;SDS011;10931;52.164;5.518;2022-07-23T05:22:50;0.47;;;0.40;;
21539;SDS011;10931;52.164;5.518;2022-07-23T05:25:16;1.05;;;0.43;;
21539;SDS011;10931;52.164;5.518;2022-07-23T05:30:23;0.30;;;0.30;;
21539;SDS011;10931;52.164;5.518;2022-07-23T05:32:49;0.40;;;0.40;;
21539;SDS011;10931;52.164;5.518;2022-07-23T05:35:14;0.30;;;0.30;;
21539;SDS011;10931;52.164;5.518;2022-07-23T05:37:43;0.68;;;0.40;;
21539;SDS011;10931;52.164;5.518;2022-07-23T05:40:10;0.52;;;0.40;;
21539;SDS011;10931;52.164;5.518;2022-07-23T05:42:49;0.45;;;0.30;;
21539;SDS011;10931;52.164;5.518;2022-07-23T05:45:17;0.35;;;0.35;;
21539;SDS011;10931;52.164;5.518;2022-07-23T05:47:43;1.55;;;0.50;;
21539;SDS011;10931;52.164;5.518;2022-07-23T05:50:19;0.38;;;0.38;;
21539;SDS011;10931;52.164;5.518;2022-07-23T05:52:50;0.93;;;0.40;;
21539;SDS011;10931;52.164;5.518;2022-07-23T05:55:16;0.40;;;0.35;;
21539;SDS011;10931;52.164;5.518;2022-07-23T05:57:57;0.55;;;0.55;;
21539;SDS011;10931;52.164;5.518;2022-07-23T06:00:23;0.45;;;0.40;;
21539;SDS011;10931;52.164;5.518;2022-07-23T06:02:52;0.65;;;0.43;;
21539;SDS011;10931;52.164;5.518;2022-07-23T06:05:18;0.88;;;0.45;;
21539;SDS011;10931;52.164;5.518;2022-07-23T06:07:44;0.32;;;0.32;;
21539;SDS011;10931;52.164;5.518;2022-07-23T06:10:09;0.52;;;0.32;;
21539;SDS011;10931;52.164;5.518;2022-07-23T06:12:35;0.30;;;0.30;;
21539;SDS011;10931;52.164;5.518;2022-07-23T06:15:02;0.60;;;0.40;;
21539;SDS011;10931;52.164;5.518;2022-07-23T06:17:31;0.40;;;0.40;;
21539;SDS011;10931;52.164;5.518;2022-07-23T06:19:57;0.45;;;0.40;;
21539;SDS011;10931;52.164;5.518;2022-07-23T06:22:29;0.30;;;0.30;;
21539;SDS011;10931;52.164;5.518;2022-07-23T06:27:35;0.40;;;0.40;;
21539;SDS011;10931;52.164;5.518;2022-07-23T06:30:03;0.32;;;0.30;;
21539;SDS011;10931;52.164;5.518;2022-07-23T06:32:53;0.38;;;0.38;;
21539;SDS011;10931;52.164;5.518;2022-07-23T06:35:19;0.60;;;0.50;;
21539;SDS011;10931;52.164;5.518;2022-07-23T06:37:51;0.68;;;0.50;;
21539;SDS011;10931;52.164;5.518;2022-07-23T06:40:25;0.30;;;0.30;;
21539;SDS011;10931;52.164;5.518;2022-07-23T06:42:51;1.13;;;0.40;;
21539;SDS011;10931;52.164;5.518;2022-07-23T06:45:16;0.38;;;0.30;;
21539;SDS011;10931;52.164;5.518;2022-07-23T06:47:54;0.40;;;0.40;;
21539;SDS011;10931;52.164;5.518;2022-07-23T06:50:22;0.32;;;0.32;;
21539;SDS011;10931;52.164;5.518;2022-07-23T06:52:48;0.45;;;0.38;;
21539;SDS011;10931;52.164;5.518;2022-07-23T06:57:54;0.30;;;0.30;;
21539;SDS011;10931;52.164;5.518;2022-07-23T07:00:19;0.30;;;0.30;;
21539;SDS011;10931;52.164;5.518;2022-07-23T07:02:46;0.68;;;0.52;;
21539;SDS011;10931;52.164;5.518;2022-07-23T07:08:36;0.40;;;0.30;;
21539;SDS011;10931;52.164;5.518;2022-07-23T07:11:01;0.75;;;0.50;;
21539;SDS011;10931;52.164;5.518;2022-07-23T07:13:30;0.57;;;0.32;;
21539;SDS011;10931;52.164;5.518;2022-07-23T07:15:55;0.35;;;0.35;;
21539;SDS011;10931;52.164;5.518;2022-07-23T07:18:34;0.30;;;0.30;;
21539;SDS011;10931;52.164;5.518;2022-07-23T07:21:03;0.30;;;0.30;;
21539;SDS011;10931;52.164;5.518;2022-07-23T07:23:44;0.32;;;0.30;;
21539;SDS011;10931;52.164;5.518;2022-07-23T07:26:36;0.30;;;0.30;;
21539;SDS011;10931;52.164;5.518;2022-07-23T07:29:10;0.40;;;0.40;;
21539;SDS011;10931;52.164;5.518;2022-07-23T07:34:07;0.57;;;0.47;;
21539;SDS011;10931;52.164;5.518;2022-07-23T07:41:40;0.30;;;0.30;;
21539;SDS011;10931;52.164;5.518;2022-07-23T07:44:08;1.35;;;0.40;;
21539;SDS011;10931;52.164;5.518;2022-07-23T07:46:35;0.43;;;0.38;;
21539;SDS011;10931;52.164;5.518;2022-07-23T07:49:07;0.57;;;0.30;;
21539;SDS011;10931;52.164;5.518;2022-07-23T07:51:35;0.95;;;0.40;;
21539;SDS011;10931;52.164;5.518;2022-07-23T07:54:01;0.88;;;0.47;;
21539;SDS011;10931;52.164;5.518;2022-07-23T07:56:26;0.40;;;0.40;;
21539;SDS011;10931;52.164;5.518;2022-07-23T07:58:54;1.42;;;0.40;;
21539;SDS011;10931;52.164;5.518;2022-07-23T08:01:20;0.82;;;0.40;;
21539;SDS011;10931;52.164;5.518;2022-07-23T08:03:46;0.35;;;0.35;;
21539;SDS011;10931;52.164;5.518;2022-07-23T08:06:11;0.40;;;0.40;;
21539;SDS011;10931;52.164;5.518;2022-07-23T08:08:37;0.50;;;0.40;;
21539;SDS011;10931;52.164;5.518;2022-07-23T08:11:08;0.65;;;0.40;;
21539;SDS011;10931;52.164;5.518;2022-07-23T08:13:40;0.45;;;0.30;;
21539;SDS011;10931;52.164;5.518;2022-07-23T08:16:16;0.68;;;0.50;;
21539;SDS011;10931;52.164;5.518;2022-07-23T08:18:49;0.75;;;0.40;;
21539;SDS011;10931;52.164;5.518;2022-07-23T08:21:15;0.40;;;0.40;;
21539;SDS011;10931;52.164;5.518;2022-07-23T08:23:41;1.10;;;0.30;;
21539;SDS011;10931;52.164;5.518;2022-07-23T08:26:07;0.80;;;0.52;;
21539;SDS011;10931;52.164;5.518;2022-07-23T08:28:37;0.30;;;0.30;;
21539;SDS011;10931;52.164;5.518;2022-07-23T08:33:49;0.52;;;0.50;;
21539;SDS011;10931;52.164;5.518;2022-07-23T08:36:34;0.47;;;0.45;;
21539;SDS011;10931;52.164;5.518;2022-07-23T08:41:44;1.00;;;0.30;;
21539;SDS011;10931;52.164;5.518;2022-07-23T08:44:30;1.08;;;0.40;;
21539;SDS011;10931;52.164;5.518;2022-07-23T08:47:03;1.05;;;0.30;;
21539;SDS011;10931;52.164;5.518;2022-07-23T08:49:37;0.95;;;0.40;;
21539;SDS011;10931;52.164;5.518;2022-07-23T08:52:25;0.45;;;0.30;;
21539;SDS011;10931;52.164;5.518;2022-07-23T08:55:15;1.05;;;0.40;;
21539;SDS011;10931;52.164;5.518;2022-07-23T08:57:48;0.30;;;0.30;;
21539;SDS011;10931;52.164;5.518;2022-07-23T09:00:15;0.47;;;0.38;;
21539;SDS011;10931;52.164;5.518;2022-07-23T09:02:46;0.30;;;0.30;;
21539;SDS011;10931;52.164;5.518;2022-07-23T09:05:12;2.22;;;0.70;;
21539;SDS011;10931;52.164;5.518;2022-07-23T09:10:47;0.65;;;0.47;;
21539;SDS011;10931;52.164;5.518;2022-07-23T09:21:32;0.70;;;0.40;;
21539;SDS011;10931;52.164;5.518;2022-07-23T09:24:12;0.55;;;0.38;;
21539;SDS011;10931;52.164;5.518;2022-07-23T09:26:44;1.13;;;0.40;;
21539;SDS011;10931;52.164;5.518;2022-07-23T09:29:20;0.50;;;0.40;;
21539;SDS011;10931;52.164;5.518;2022-07-23T09:31:50;0.77;;;0.47;;
21539;SDS011;10931;52.164;5.518;2022-07-23T09:34:17;0.88;;;0.52;;
21539;SDS011;10931;52.164;5.518;2022-07-23T09:36:43;0.93;;;0.22;;
21539;SDS011;10931;52.164;5.518;2022-07-23T09:39:10;1.23;;;0.40;;
21539;SDS011;10931;52.164;5.518;2022-07-23T09:41:45;0.47;;;0.32;;
21539;SDS011;10931;52.164;5.518;2022-07-23T09:44:17;0.65;;;0.50;;
21539;SDS011;10931;52.164;5.518;2022-07-23T09:46:59;0.70;;;0.50;;
21539;SDS011;10931;52.164;5.518;2022-07-23T09:49:28;0.70;;;0.38;;
21539;SDS011;10931;52.164;5.518;2022-07-23T09:52:00;0.57;;;0.40;;
21539;SDS011;10931;52.164;5.518;2022-07-23T09:54:32;1.08;;;0.50;;
21539;SDS011;10931;52.164;5.518;2022-07-23T09:57:11;2.90;;;0.50;;
21539;SDS011;10931;52.164;5.518;2022-07-23T09:59:42;0.70;;;0.40;;
21539;SDS011;10931;52.164;5.518;2022-07-23T10:02:12;0.60;;;0.47;;
21539;SDS011;10931;52.164;5.518;2022-07-23T10:04:42;1.48;;;0.38;;
21539;SDS011;10931;52.164;5.518;2022-07-23T10:07:11;0.30;;;0.30;;
21539;SDS011;10931;52.164;5.518;2022-07-23T10:09:39;1.30;;;0.40;;
21539;SDS011;10931;52.164;5.518;2022-07-23T10:12:15;1.10;;;0.52;;
21539;SDS011;10931;52.164;5.518;2022-07-23T10:15:03;0.55;;;0.40;;
21539;SDS011;10931;52.164;5.518;2022-07-23T10:17:37;1.35;;;0.50;;
21539;SDS011;10931;52.164;5.518;2022-07-23T10:20:03;0.40;;;0.40;;
21539;SDS011;10931;52.164;5.518;2022-07-23T10:22:34;0.40;;;0.40;;
21539;SDS011;10931;52.164;5.518;2022-07-23T10:36:39;0.77;;;0.38;;
21539;SDS011;10931;52.164;5.518;2022-07-23T10:39:39;0.90;;;0.52;;
21539;SDS011;10931;52.164;5.518;2022-07-23T10:42:08;0.38;;;0.38;;
21539;SDS011;10931;52.164;5.518;2022-07-23T10:44:43;0.32;;;0.30;;
21539;SDS011;10931;52.164;5.518;2022-07-23T10:47:11;0.68;;;0.50;;
21539;SDS011;10931;52.164;5.518;2022-07-23T10:50:19;0.40;;;0.40;;
21539;SDS011;10931;52.164;5.518;2022-07-23T10:58:01;1.27;;;0.45;;
21539;SDS011;10931;52.164;5.518;2022-07-23T11:00:35;0.40;;;0.40;;
21539;SDS011;10931;52.164;5.518;2022-07-23T11:03:06;1.52;;;0.60;;
21539;SDS011;10931;52.164;5.518;2022-07-23T11:05:58;0.45;;;0.40;;
21539;SDS011;10931;52.164;5.518;2022-07-23T11:08:25;1.08;;;0.60;;
21539;SDS011;10931;52.164;5.518;2022-07-23T11:24:06;0.82;;;0.50;;
21539;SDS011;10931;52.164;5.518;2022-07-23T11:32:03;0.82;;;0.63;;
21539;SDS011;10931;52.164;5.518;2022-07-23T11:37:04;0.85;;;0.60;;
21539;SDS011;10931;52.164;5.518;2022-07-23T11:39:34;1.10;;;0.60;;
21539;SDS011;10931;52.164;5.518;2022-07-23T11:42:00;0.63;;;0.40;;
21539;SDS011;10931;52.164;5.518;2022-07-23T11:44:33;1.58;;;0.70;;
21539;SDS011;10931;52.164;5.518;2022-07-23T11:47:06;2.83;;;0.50;;
21539;SDS011;10931;52.164;5.518;2022-07-23T11:49:35;1.58;;;0.60;;
21539;SDS011;10931;52.164;5.518;2022-07-23T11:52:15;0.38;;;0.38;;
21539;SDS011;10931;52.164;5.518;2022-07-23T11:54:54;0.47;;;0.40;;
21539;SDS011;10931;52.164;5.518;2022-07-23T11:57:28;0.40;;;0.40;;
21539;SDS011;10931;52.164;5.518;2022-07-23T11:59:57;0.77;;;0.43;;
21539;SDS011;10931;52.164;5.518;2022-07-23T12:02:29;1.13;;;0.65;;
21539;SDS011;10931;52.164;5.518;2022-07-23T12:04:57;0.40;;;0.40;;
21539;SDS011;10931;52.164;5.518;2022-07-23T12:09:59;0.50;;;0.50;;
21539;SDS011;10931;52.164;5.518;2022-07-23T12:12:44;0.38;;;0.38;;
21539;SDS011;10931;52.164;5.518;2022-07-23T12:15:41;0.75;;;0.60;;
21539;SDS011;10931;52.164;5.518;2022-07-23T12:21:05;0.95;;;0.50;;
21539;SDS011;10931;52.164;5.518;2022-07-23T12:23:33;0.63;;;0.50;;
21539;SDS011;10931;52.164;5.518;2022-07-23T12:26:08;1.35;;;0.50;;
21539;SDS011;10931;52.164;5.518;2022-07-23T12:28:37;1.08;;;0.60;;
21539;SDS011;10931;52.164;5.518;2022-07-23T12:31:11;0.55;;;0.50;;
21539;SDS011;10931;52.164;5.518;2022-07-23T12:36:36;0.57;;;0.55;;
21539;SDS011;10931;52.164;5.518;2022-07-23T12:39:28;0.47;;;0.40;;
21539;SDS011;10931;52.164;5.518;2022-07-23T12:41:59;0.60;;;0.60;;
21539;SDS011;10931;52.164;5.518;2022-07-23T12:44:28;2.05;;;0.60;;
21539;SDS011;10931;52.164;5.518;2022-07-23T12:46:53;0.55;;;0.55;;
21539;SDS011;10931;52.164;5.518;2022-07-23T12:49:30;2.58;;;0.55;;
21539;SDS011;10931;52.164;5.518;2022-07-23T12:52:15;3.20;;;0.70;;
21539;SDS011;10931;52.164;5.518;2022-07-23T12:54:43;3.67;;;0.60;;
21539;SDS011;10931;52.164;5.518;2022-07-23T12:57:09;5.70;;;0.68;;
21539;SDS011;10931;52.164;5.518;2022-07-23T12:59:34;2.70;;;0.60;;
21539;SDS011;10931;52.164;5.518;2022-07-23T13:02:00;1.27;;;0.60;;
21539;SDS011;10931;52.164;5.518;2022-07-23T13:04:28;3.17;;;0.75;;
21539;SDS011;10931;52.164;5.518;2022-07-23T13:06:59;3.42;;;0.60;;
21539;SDS011;10931;52.164;5.518;2022-07-23T13:09:32;0.70;;;0.50;;
21539;SDS011;10931;52.164;5.518;2022-07-23T13:15:23;0.88;;;0.55;;
21539;SDS011;10931;52.164;5.518;2022-07-23T13:17:48;1.00;;;0.40;;
21539;SDS011;10931;52.164;5.518;2022-07-23T13:20:15;0.93;;;0.60;;
21539;SDS011;10931;52.164;5.518;2022-07-23T13:22:51;1.50;;;0.50;;
21539;SDS011;10931;52.164;5.518;2022-07-23T13:25:16;0.98;;;0.70;;
21539;SDS011;10931;52.164;5.518;2022-07-23T13:27:42;1.58;;;0.60;;
21539;SDS011;10931;52.164;5.518;2022-07-23T13:30:15;4.00;;;0.90;;
21539;SDS011;10931;52.164;5.518;2022-07-23T13:32:43;0.63;;;0.60;;
21539;SDS011;10931;52.164;5.518;2022-07-23T13:37:38;3.30;;;0.90;;
21539;SDS011;10931;52.164;5.518;2022-07-23T13:40:04;1.25;;;0.63;;
21539;SDS011;10931;52.164;5.518;2022-07-23T13:42:40;2.83;;;0.65;;
21539;SDS011;10931;52.164;5.518;2022-07-23T13:45:18;1.42;;;0.90;;
21539;SDS011;10931;52.164;5.518;2022-07-23T13:47:45;0.90;;;0.70;;
21539;SDS011;10931;52.164;5.518;2022-07-23T13:50:10;1.70;;;0.80;;
21539;SDS011;10931;52.164;5.518;2022-07-23T13:52:44;1.65;;;0.70;;
21539;SDS011;10931;52.164;5.518;2022-07-23T13:55:13;2.00;;;0.70;;
21539;SDS011;10931;52.164;5.518;2022-07-23T13:57:45;1.02;;;0.70;;
21539;SDS011;10931;52.164;5.518;2022-07-23T14:00:20;1.25;;;0.85;;
21539;SDS011;10931;52.164;5.518;2022-07-23T14:02:46;1.10;;;0.60;;
21539;SDS011;10931;52.164;5.518;2022-07-23T14:05:20;0.70;;;0.55;;
21539;SDS011;10931;52.164;5.518;2022-07-23T14:07:59;1.05;;;0.70;;
21539;SDS011;10931;52.164;5.518;2022-07-23T14:10:24;0.80;;;0.70;;
21539;SDS011;10931;52.164;5.518;2022-07-23T14:12:52;0.68;;;0.60;;
21539;SDS011;10931;52.164;5.518;2022-07-23T14:15:23;0.60;;;0.60;;
21539;SDS011;10931;52.164;5.518;2022-07-23T14:17:51;1.25;;;0.70;;
21539;SDS011;10931;52.164;5.518;2022-07-23T14:20:37;2.38;;;0.80;;
21539;SDS011;10931;52.164;5.518;2022-07-23T14:23:03;1.70;;;0.80;;
21539;SDS011;10931;52.164;5.518;2022-07-23T14:25:34;0.77;;;0.70;;
21539;SDS011;10931;52.164;5.518;2022-07-23T14:28:01;0.90;;;0.73;;
21539;SDS011;10931;52.164;5.518;2022-07-23T14:30:29;1.10;;;0.70;;
21539;SDS011;10931;52.164;5.518;2022-07-23T14:35:33;1.15;;;0.95;;
21539;SDS011;10931;52.164;5.518;2022-07-23T14:37:59;1.17;;;0.80;;
21539;SDS011;10931;52.164;5.518;2022-07-23T14:40:24;2.05;;;0.65;;
21539;SDS011;10931;52.164;5.518;2022-07-23T14:42:57;0.70;;;0.65;;
21539;SDS011;10931;52.164;5.518;2022-07-23T14:45:24;2.15;;;0.90;;
21539;SDS011;10931;52.164;5.518;2022-07-23T14:47:54;2.53;;;0.80;;
21539;SDS011;10931;52.164;5.518;2022-07-23T14:50:20;1.27;;;0.80;;
21539;SDS011;10931;52.164;5.518;2022-07-23T14:56:14;1.58;;;0.90;;
21539;SDS011;10931;52.164;5.518;2022-07-23T15:02:02;2.08;;;0.73;;
21539;SDS011;10931;52.164;5.518;2022-07-23T15:07:29;1.52;;;0.82;;
21539;SDS011;10931;52.164;5.518;2022-07-23T15:10:01;1.27;;;0.75;;
21539;SDS011;10931;52.164;5.518;2022-07-23T15:12:28;0.80;;;0.70;;
21539;SDS011;10931;52.164;5.518;2022-07-23T15:15:04;1.02;;;0.70;;
21539;SDS011;10931;52.164;5.518;2022-07-23T15:17:32;1.00;;;0.82;;
21539;SDS011;10931;52.164;5.518;2022-07-23T15:19:59;1.23;;;0.90;;
21539;SDS011;10931;52.164;5.518;2022-07-23T15:22:25;0.73;;;0.60;;
21539;SDS011;10931;52.164;5.518;2022-07-23T15:24:54;1.23;;;0.93;;
21539;SDS011;10931;52.164;5.518;2022-07-23T15:27:19;1.30;;;0.80;;
21539;SDS011;10931;52.164;5.518;2022-07-23T15:29:50;1.80;;;0.70;;
21539;SDS011;10931;52.164;5.518;2022-07-23T15:32:15;1.75;;;0.90;;
21539;SDS011;10931;52.164;5.518;2022-07-23T15:34:44;1.10;;;0.85;;
21539;SDS011;10931;52.164;5.518;2022-07-23T15:37:29;1.48;;;1.00;;
21539;SDS011;10931;52.164;5.518;2022-07-23T15:42:37;1.48;;;0.80;;
21539;SDS011;10931;52.164;5.518;2022-07-23T15:45:03;0.55;;;0.55;;
21539;SDS011;10931;52.164;5.518;2022-07-23T15:47:50;1.13;;;0.70;;
21539;SDS011;10931;52.164;5.518;2022-07-23T15:53:28;2.00;;;1.00;;
21539;SDS011;10931;52.164;5.518;2022-07-23T15:55:54;0.70;;;0.63;;
21539;SDS011;10931;52.164;5.518;2022-07-23T15:58:21;1.35;;;0.80;;
21539;SDS011;10931;52.164;5.518;2022-07-23T16:00:47;0.70;;;0.60;;
21539;SDS011;10931;52.164;5.518;2022-07-23T16:03:13;2.55;;;0.82;;
21539;SDS011;10931;52.164;5.518;2022-07-23T16:05:47;1.15;;;0.82;;
21539;SDS011;10931;52.164;5.518;2022-07-23T16:08:20;1.65;;;0.80;;
21539;SDS011;10931;52.164;5.518;2022-07-23T16:10:47;1.00;;;0.80;;
21539;SDS011;10931;52.164;5.518;2022-07-23T16:13:22;0.68;;;0.63;;
21539;SDS011;10931;52.164;5.518;2022-07-23T16:16:02;1.55;;;0.95;;
21539;SDS011;10931;52.164;5.518;2022-07-23T16:18:36;3.15;;;1.20;;
21539;SDS011;10931;52.164;5.518;2022-07-23T16:21:17;1.23;;;0.90;;
21539;SDS011;10931;52.164;5.518;2022-07-23T16:23:48;1.45;;;0.77;;
21539;SDS011;10931;52.164;5.518;2022-07-23T16:26:14;1.08;;;0.80;;
21539;SDS011;10931;52.164;5.518;2022-07-23T16:31:19;1.48;;;1.00;;
21539;SDS011;10931;52.164;5.518;2022-07-23T16:33:46;0.85;;;0.85;;
21539;SDS011;10931;52.164;5.518;2022-07-23T16:36:15;1.17;;;0.90;;
21539;SDS011;10931;52.164;5.518;2022-07-23T16:38:51;1.33;;;0.80;;
21539;SDS011;10931;52.164;5.518;2022-07-23T16:41:17;1.10;;;0.80;;
21539;SDS011;10931;52.164;5.518;2022-07-23T16:43:55;0.77;;;0.77;;
21539;SDS011;10931;52.164;5.518;2022-07-23T16:46:26;1.42;;;0.70;;
21539;SDS011;10931;52.164;5.518;2022-07-23T16:48:56;0.82;;;0.70;;
21539;SDS011;10931;52.164;5.518;2022-07-23T16:51:36;0.80;;;0.60;;
21539;SDS011;10931;52.164;5.518;2022-07-23T16:54:02;0.90;;;0.90;;
21539;SDS011;10931;52.164;5.518;2022-07-23T16:56:36;1.20;;;0.80;;
21539;SDS011;10931;52.164;5.518;2022-07-23T16:59:01;1.23;;;0.80;;
21539;SDS011;10931;52.164;5.518;2022-07-23T17:01:27;0.90;;;0.70;;
21539;SDS011;10931;52.164;5.518;2022-07-23T17:03:55;0.90;;;0.70;;
21539;SDS011;10931;52.164;5.518;2022-07-23T17:06:28;1.35;;;0.93;;
21539;SDS011;10931;52.164;5.518;2022-07-23T17:08:58;1.05;;;0.90;;
21539;SDS011;10931;52.164;5.518;2022-07-23T17:11:25;0.80;;;0.73;;
21539;SDS011;10931;52.164;5.518;2022-07-23T17:13:55;0.60;;;0.60;;
21539;SDS011;10931;52.164;5.518;2022-07-23T17:19:12;1.13;;;0.80;;
21539;SDS011;10931;52.164;5.518;2022-07-23T17:21:38;1.10;;;0.85;;
21539;SDS011;10931;52.164;5.518;2022-07-23T17:24:08;0.70;;;0.70;;
21539;SDS011;10931;52.164;5.518;2022-07-23T17:26:36;1.10;;;0.80;;
21539;SDS011;10931;52.164;5.518;2022-07-23T17:29:06;1.00;;;0.70;;
21539;SDS011;10931;52.164;5.518;2022-07-23T17:31:31;1.83;;;0.85;;
21539;SDS011;10931;52.164;5.518;2022-07-23T17:34:02;1.33;;;1.00;;
21539;SDS011;10931;52.164;5.518;2022-07-23T17:36:28;1.02;;;0.90;;
21539;SDS011;10931;52.164;5.518;2022-07-23T17:38:54;1.25;;;0.93;;
21539;SDS011;10931;52.164;5.518;2022-07-23T17:41:29;0.70;;;0.70;;